Terminal Aerodrome Forecast
Issued by NWS Flagstaff, AZ

Home | Current Version | Previous Version | Text Only | Print | Product List | Glossary On
Versions: 1 2 3 4 5 6 7 8 9 10 11 12 13 14 15 16 17 18 19 20 21
000
FTUS45 KFGZ 262300
TAFFLG
TAF
KFLG 262330Z 2700/2724 25010G18KT 5SM -SHSN BKN030 OVC045
     FM270030 24008KT P6SM FEW050 BKN080
     FM270130 VRB05KT P6SM SCT080
     FM271700 23008G15KT P6SM SCT050 OVC080=

USA.gov is the U.S. government's official web portal to all federal, state and local government web resources and services.